createdAt,value
2018-08-24T00:00:30.012Z,99883.50
2018-08-24T00:02:57.802Z,99884.55
2018-08-24T00:05:25.677Z,99892.13
2018-08-24T00:07:53.424Z,99890.98
2018-08-24T00:10:21.241Z,99895.91
2018-08-24T00:12:49.048Z,99896.58
2018-08-24T00:15:16.926Z,99892.19
2018-08-24T00:17:47.015Z,99895.58
2018-08-24T00:20:14.779Z,99896.02
2018-08-24T00:22:42.784Z,99888.53
2018-08-24T00:25:10.680Z,99886.30
2018-08-24T00:27:38.487Z,99892.66
2018-08-24T00:30:07.135Z,99895.36
2018-08-24T00:32:34.895Z,99893.15
2018-08-24T00:35:02.748Z,99894.84
2018-08-24T00:37:30.632Z,99892.55
2018-08-24T00:39:58.476Z,99890.86
2018-08-24T00:42:26.224Z,99880.45
2018-08-24T00:44:54.028Z,99884.53
2018-08-24T00:47:21.795Z,99886.02
2018-08-24T00:49:49.600Z,99888.00
2018-08-24T00:52:17.498Z,99884.79
2018-08-24T00:54:45.236Z,99879.95
2018-08-24T00:57:13.055Z,99879.14
2018-08-24T00:59:40.875Z,99870.13
2018-08-24T01:02:08.687Z,99872.91
2018-08-24T01:04:36.795Z,99871.53
2018-08-24T01:07:09.819Z,99869.23
2018-08-24T01:09:38.677Z,99877.92
2018-08-24T01:12:13.892Z,99893.62
2018-08-24T01:14:48.472Z,99901.63
2018-08-24T01:17:22.104Z,99911.45
2018-08-24T01:19:49.957Z,99912.33
2018-08-24T01:22:17.802Z,99908.46
2018-08-24T01:24:45.588Z,99905.20
2018-08-24T01:27:13.549Z,99905.09
2018-08-24T01:29:42.323Z,99903.95
2018-08-24T01:32:10.159Z,99905.66
2018-08-24T01:34:38.270Z,99902.20
2018-08-24T01:37:06.273Z,99903.00
2018-08-24T01:39:34.111Z,99907.09
2018-08-24T01:42:02.080Z,99907.75
2018-08-24T01:44:30.047Z,99902.22
2018-08-24T01:46:57.898Z,99900.59
2018-08-24T01:49:25.918Z,99896.80
2018-08-24T01:51:53.711Z,99904.56
2018-08-24T01:54:21.575Z,99889.27
2018-08-24T01:56:49.431Z,99889.44
2018-08-24T01:59:17.248Z,99893.88
2018-08-24T02:01:44.993Z,99882.20
2018-08-24T02:04:12.799Z,99888.52
2018-08-24T02:06:40.627Z,99885.55
2018-08-24T02:09:10.636Z,99877.59
2018-08-24T02:11:38.502Z,99876.12
2018-08-24T02:14:09.164Z,99886.34
2018-08-24T02:16:37.942Z,99886.14
2018-08-24T02:19:13.924Z,99885.75
2018-08-24T02:21:47.521Z,99889.90
2018-08-24T02:24:15.312Z,99890.31
2018-08-24T02:26:44.165Z,99893.09
2018-08-24T02:29:12.028Z,99891.70
2018-08-24T02:31:45.760Z,99896.91
2018-08-24T02:34:13.808Z,99891.77
2018-08-24T02:36:41.851Z,99889.47
2018-08-24T02:39:12.720Z,99885.11
2018-08-24T02:41:40.788Z,99879.52
2018-08-24T02:44:09.159Z,99882.95
2018-08-24T02:46:37.262Z,99877.98
2018-08-24T02:49:05.159Z,99877.95
2018-08-24T02:51:33.044Z,99874.52
2018-08-24T02:54:00.939Z,99875.09
2018-08-24T02:56:29.305Z,99875.06
2018-08-24T02:58:57.100Z,99873.39
2018-08-24T03:01:24.979Z,99870.61
2018-08-24T03:03:52.846Z,99880.33
2018-08-24T03:06:20.607Z,99878.17
2018-08-24T03:08:48.392Z,99877.67
2018-08-24T03:11:16.224Z,99880.95
2018-08-24T03:13:44.051Z,99876.86
2018-08-24T03:16:11.902Z,99874.41
2018-08-24T03:18:39.619Z,99880.90
2018-08-24T03:21:07.402Z,99873.27
2018-08-24T03:23:35.207Z,99876.81
2018-08-24T03:26:03.040Z,99879.09
2018-08-24T03:28:30.809Z,99875.42
2018-08-24T03:30:58.637Z,99872.15
2018-08-24T03:33:26.443Z,99880.36
2018-08-24T03:35:54.196Z,99877.20
2018-08-24T03:38:22.066Z,99881.80
2018-08-24T03:40:49.911Z,99877.94
2018-08-24T03:43:17.926Z,99871.52
2018-08-24T03:45:45.768Z,99875.97
2018-08-24T03:48:13.495Z,99874.34
2018-08-24T03:50:41.367Z,99871.75
2018-08-24T03:53:09.276Z,99882.53
2018-08-24T03:55:38.243Z,99877.38
2018-08-24T03:58:07.288Z,99885.13
2018-08-24T04:00:35.124Z,99882.30
2018-08-24T04:03:03.442Z,99884.01
2018-08-24T04:05:31.291Z,99882.30
2018-08-24T04:07:59.173Z,99891.66
2018-08-24T04:10:27.006Z,99890.30
2018-08-24T04:12:55.843Z,99893.22
2018-08-24T04:15:23.719Z,99886.78
2018-08-24T04:17:51.499Z,99882.16
2018-08-24T04:20:19.371Z,99886.97
2018-08-24T04:22:47.239Z,99893.90
2018-08-24T04:25:15.055Z,99892.77
2018-08-24T04:27:42.875Z,99896.17
2018-08-24T04:30:11.060Z,99896.92
2018-08-24T04:32:38.923Z,99901.01
2018-08-24T04:35:06.948Z,99906.16
2018-08-24T04:37:35.059Z,99914.23
2018-08-24T04:40:03.293Z,99905.38
2018-08-24T04:42:31.035Z,99905.48
2018-08-24T04:44:58.807Z,99910.92
2018-08-24T04:47:26.616Z,99910.28
2018-08-24T04:49:54.395Z,99906.03
2018-08-24T04:52:22.626Z,99912.41
2018-08-24T04:54:51.411Z,99919.33
2018-08-24T04:57:19.216Z,99917.56
2018-08-24T04:59:46.989Z,99916.34
2018-08-24T05:02:14.827Z,99919.18
2018-08-24T05:04:42.628Z,99927.55
2018-08-24T05:07:10.416Z,99929.06
2018-08-24T05:09:38.348Z,99928.62
2018-08-24T05:12:06.206Z,99929.06
2018-08-24T05:14:34.010Z,99928.22
2018-08-24T05:17:01.808Z,99928.66
2018-08-24T05:19:29.578Z,99933.86
2018-08-24T05:21:57.372Z,99940.72
2018-08-24T05:24:25.224Z,99944.85
2018-08-24T05:26:53.069Z,99945.29
2018-08-24T05:29:20.852Z,99951.97
2018-08-24T05:31:48.664Z,99951.41
2018-08-24T05:34:16.376Z,99948.18
2018-08-24T05:36:44.215Z,99950.98
2018-08-24T05:39:12.056Z,99951.95
2018-08-24T05:41:39.831Z,99951.67
2018-08-24T05:44:07.628Z,99957.75
2018-08-24T05:46:35.439Z,99961.63
2018-08-24T05:49:03.329Z,99957.32
2018-08-24T05:51:31.146Z,99960.81
2018-08-24T05:53:59.020Z,99962.60
2018-08-24T05:56:26.856Z,99961.61
2018-08-24T05:58:54.731Z,99964.82
2018-08-24T06:01:22.531Z,99969.66
2018-08-24T06:03:50.355Z,99973.61
2018-08-24T06:06:18.100Z,99967.39
2018-08-24T06:08:50.498Z,99965.89
2018-08-24T06:11:18.255Z,99969.55
2018-08-24T06:13:46.032Z,99972.84
2018-08-24T06:16:13.824Z,99978.79
2018-08-24T06:18:41.732Z,99977.85
2018-08-24T06:21:09.523Z,99975.27
2018-08-24T06:23:37.334Z,99982.22
2018-08-24T06:26:05.211Z,99982.67
2018-08-24T06:28:32.975Z,99980.58
2018-08-24T06:31:00.745Z,99986.51
2018-08-24T06:33:28.497Z,99991.37
2018-08-24T06:35:56.272Z,99990.59
2018-08-24T06:38:24.038Z,99989.80
2018-08-24T06:40:51.835Z,99997.03
2018-08-24T06:43:19.754Z,99989.05
2018-08-24T06:45:47.508Z,99992.95
2018-08-24T06:48:15.385Z,99994.22
2018-08-24T06:50:43.135Z,99993.41
2018-08-24T06:53:11.024Z,100001.39
2018-08-24T06:55:39.058Z,100007.30
2018-08-24T06:58:07.091Z,100008.37
2018-08-24T07:00:35.019Z,100007.59
2018-08-24T07:03:03.057Z,100007.61
2018-08-24T07:05:31.264Z,100015.64
2018-08-24T07:07:59.200Z,100012.44
2018-08-24T07:10:27.319Z,100016.82
2018-08-24T07:12:55.097Z,100012.64
2018-08-24T07:15:23.008Z,100023.83
2018-08-24T07:17:56.587Z,100023.63
2018-08-24T07:20:24.736Z,100025.22
2018-08-24T07:22:52.748Z,100041.21
2018-08-24T07:25:20.924Z,100049.52
2018-08-24T07:27:48.839Z,100048.19
2018-08-24T07:30:16.615Z,100044.58
2018-08-24T07:32:44.459Z,100047.95
2018-08-24T07:35:12.871Z,100048.94
2018-08-24T07:37:40.611Z,100040.41
2018-08-24T07:40:08.440Z,100041.55
2018-08-24T07:42:36.227Z,100032.78
2018-08-24T07:45:04.061Z,100038.14
2018-08-24T07:47:31.843Z,100037.17
2018-08-24T07:49:59.576Z,100033.64
2018-08-24T07:52:27.544Z,100043.55
2018-08-24T07:54:55.451Z,100039.97
2018-08-24T07:57:23.526Z,100045.03
2018-08-24T07:59:51.473Z,100048.98
2018-08-24T08:02:22.399Z,100060.06
2018-08-24T08:04:50.231Z,100063.02
2018-08-24T08:07:18.028Z,100063.50
2018-08-24T08:09:46.066Z,100060.57
2018-08-24T08:12:13.889Z,100065.33
2018-08-24T08:14:47.258Z,100069.20
2018-08-24T08:17:15.076Z,100062.81
2018-08-24T08:19:42.783Z,100071.16
2018-08-24T08:22:10.575Z,100075.73
2018-08-24T08:24:38.424Z,100073.77
2018-08-24T08:27:06.192Z,100080.97
2018-08-24T08:29:39.658Z,100076.69
2018-08-24T08:32:07.327Z,100074.56
2018-08-24T08:34:39.639Z,100086.86
2018-08-24T08:37:07.432Z,100086.34
2018-08-24T08:39:35.215Z,100098.41
2018-08-24T08:42:03.000Z,100088.37
2018-08-24T08:44:30.791Z,100084.20
2018-08-24T08:46:58.659Z,100087.71
2018-08-24T08:49:26.428Z,100099.77
2018-08-24T08:51:54.211Z,100098.19
2018-08-24T08:54:22.040Z,100096.39
2018-08-24T08:56:49.743Z,100098.70
2018-08-24T08:59:17.601Z,100088.77
2018-08-24T09:01:45.469Z,100089.19
2018-08-24T09:04:13.252Z,100097.47
2018-08-24T09:06:41.014Z,100105.30
2018-08-24T09:09:09.344Z,100109.49
2018-08-24T09:11:37.060Z,100113.56
2018-08-24T09:14:04.943Z,100105.45
2018-08-24T09:16:32.707Z,100119.05
2018-08-24T09:19:06.121Z,100124.12
2018-08-24T09:21:39.695Z,100128.78
2018-08-24T09:24:12.993Z,100137.27
2018-08-24T09:26:46.392Z,100149.55
2018-08-24T09:29:20.067Z,100155.23
2018-08-24T09:31:47.884Z,100163.88
2018-08-24T09:34:15.735Z,100164.95
2018-08-24T09:36:43.555Z,100178.27
2018-08-24T09:39:11.373Z,100190.44
2018-08-24T09:41:39.136Z,100193.99
2018-08-24T09:44:06.935Z,100193.50
2018-08-24T09:46:40.540Z,100195.39
2018-08-24T09:49:14.153Z,100197.39
2018-08-24T09:51:41.876Z,100204.04
2018-08-24T09:54:09.728Z,100207.60
2018-08-24T09:56:38.835Z,100213.92
2018-08-24T09:59:06.732Z,100211.94
2018-08-24T10:01:40.197Z,100209.89
2018-08-24T10:04:13.673Z,100215.06
2018-08-24T10:06:47.221Z,100214.40
2018-08-24T10:09:15.518Z,100202.39
2018-08-24T10:11:43.429Z,100192.27
2018-08-24T10:14:11.524Z,100197.91
2018-08-24T10:16:39.353Z,100200.63
2018-08-24T10:19:09.907Z,100196.00
2018-08-24T10:21:37.788Z,100200.67
2018-08-24T10:24:06.893Z,100203.66
2018-08-24T10:26:34.730Z,100208.55
2018-08-24T10:29:03.064Z,100205.73
2018-08-24T10:31:30.880Z,100197.00
2018-08-24T10:33:58.773Z,100185.77
2018-08-24T10:36:26.555Z,100184.38
2018-08-24T10:38:54.419Z,100188.70
2018-08-24T10:41:22.162Z,100199.13
2018-08-24T10:43:49.871Z,100194.07
2018-08-24T10:46:17.651Z,100175.27
2018-08-24T10:48:45.464Z,100180.38
2018-08-24T10:51:13.284Z,100185.33
2018-08-24T10:53:41.099Z,100188.65
2018-08-24T10:56:08.994Z,100191.33
2018-08-24T10:58:36.703Z,100201.39
2018-08-24T11:01:04.596Z,100180.68
2018-08-24T11:03:32.407Z,100171.41
2018-08-24T11:06:00.147Z,100170.72
2018-08-24T11:08:28.014Z,100171.48
2018-08-24T11:10:55.816Z,100153.42
2018-08-24T11:13:23.588Z,100147.42
2018-08-24T11:15:51.742Z,100156.98
2018-08-24T11:18:19.503Z,100159.23
2018-08-24T11:20:47.412Z,100156.58
2018-08-24T11:23:15.310Z,100150.59
2018-08-24T11:25:43.211Z,100141.40
2018-08-24T11:28:11.048Z,100142.41
2018-08-24T11:30:39.102Z,100140.28
2018-08-24T11:33:06.948Z,100143.81
2018-08-24T11:35:34.779Z,100148.75
2018-08-24T11:38:02.791Z,100141.66
2018-08-24T11:40:32.291Z,100149.13
2018-08-24T11:43:00.175Z,100143.31
2018-08-24T11:45:28.255Z,100132.11
2018-08-24T11:47:56.252Z,100134.67
2018-08-24T11:50:23.976Z,100137.03
2018-08-24T11:52:54.380Z,100124.87
2018-08-24T11:55:22.259Z,100124.41
2018-08-24T11:57:50.119Z,100121.17
2018-08-24T12:00:18.034Z,100116.77
2018-08-24T12:02:45.787Z,100119.34
2018-08-24T12:05:13.635Z,100109.53
2018-08-24T12:07:41.524Z,100105.30
2018-08-24T12:10:09.247Z,100102.42
2018-08-24T12:12:37.190Z,100109.84
2018-08-24T12:15:05.067Z,100105.91
2018-08-24T12:17:35.536Z,100105.37
2018-08-24T12:20:04.104Z,100102.68
2018-08-24T12:22:32.263Z,100099.00
2018-08-24T12:25:00.233Z,100096.90
2018-08-24T12:27:28.048Z,100097.41
2018-08-24T12:29:55.867Z,100092.67
2018-08-24T12:32:23.787Z,100095.83
2018-08-24T12:34:51.655Z,100095.09
2018-08-24T12:37:19.556Z,100093.22
2018-08-24T12:39:47.451Z,100093.92
2018-08-24T12:42:15.359Z,100088.08
2018-08-24T12:44:43.259Z,100082.05
2018-08-24T12:47:11.989Z,100081.34
2018-08-24T12:49:40.386Z,100069.16
2018-08-24T12:52:08.434Z,100081.83
2018-08-24T12:54:36.236Z,100068.63
2018-08-24T12:57:04.475Z,100068.63
2018-08-24T12:59:32.328Z,100066.36
2018-08-24T13:02:00.143Z,100069.44
2018-08-24T13:04:27.938Z,100058.60
2018-08-24T13:06:55.739Z,100052.92
2018-08-24T13:09:23.539Z,100052.36
2018-08-24T13:11:51.283Z,100046.00
2018-08-24T13:14:19.104Z,100044.17
2018-08-24T13:16:46.981Z,100042.53
2018-08-24T13:19:14.789Z,100045.92
2018-08-24T13:21:42.679Z,100045.32
2018-08-24T13:24:10.463Z,100041.14
2018-08-24T13:26:38.244Z,100042.64
2018-08-24T13:29:06.241Z,100035.76
2018-08-24T13:31:34.024Z,100038.79
2018-08-24T13:34:01.826Z,100041.81
2018-08-24T13:36:29.615Z,100039.91
2018-08-24T13:38:57.486Z,100034.96
2018-08-24T13:41:25.220Z,100026.88
2018-08-24T13:43:53.063Z,100027.59
2018-08-24T13:46:21.717Z,100023.99
2018-08-24T13:48:50.524Z,100023.27
2018-08-24T13:51:18.355Z,100018.16
2018-08-24T13:53:46.479Z,100011.13
2018-08-24T13:56:14.839Z,100007.75
2018-08-24T13:58:42.663Z,100006.19
2018-08-24T14:01:12.114Z,99998.24
2018-08-24T14:03:39.883Z,99989.94
2018-08-24T14:06:08.123Z,99993.30
2018-08-24T14:08:35.991Z,99985.91
2018-08-24T14:11:03.788Z,99980.82
2018-08-24T14:13:31.650Z,99980.55
2018-08-24T14:15:59.414Z,99983.16
2018-08-24T14:18:27.216Z,99980.84
2018-08-24T14:20:55.052Z,99978.78
2018-08-24T14:23:22.820Z,99977.75
2018-08-24T14:25:50.617Z,99978.11
2018-08-24T14:28:18.488Z,99978.34
2018-08-24T14:30:46.304Z,99970.85
2018-08-24T14:33:14.139Z,99967.27
2018-08-24T14:35:41.945Z,99957.11
2018-08-24T14:38:09.819Z,99956.88
2018-08-24T14:40:37.673Z,99961.31
2018-08-24T14:43:06.271Z,99950.70
2018-08-24T14:45:34.615Z,99951.50
2018-08-24T14:48:02.546Z,99956.53
2018-08-24T14:50:30.254Z,99955.02
2018-08-24T14:52:58.091Z,99949.73
2018-08-24T14:55:25.889Z,99954.38
2018-08-24T14:57:53.728Z,99949.50
2018-08-24T15:00:21.523Z,99951.47
2018-08-24T15:02:49.367Z,99958.98
2018-08-24T15:05:17.155Z,99958.64
2018-08-24T15:07:45.045Z,99957.59
2018-08-24T15:10:12.869Z,99956.07
2018-08-24T15:12:40.731Z,99961.08
2018-08-24T15:15:08.683Z,99959.45
2018-08-24T15:17:36.416Z,99957.83
2018-08-24T15:20:05.336Z,99955.48
2018-08-24T15:22:33.565Z,99954.44
2018-08-24T15:25:01.397Z,99950.70
2018-08-24T15:27:29.603Z,99956.75
2018-08-24T15:29:57.878Z,99959.19
2018-08-24T15:32:25.999Z,99946.72
2018-08-24T15:34:53.783Z,99947.41
2018-08-24T15:37:21.681Z,99951.28
2018-08-24T15:39:49.476Z,99935.16
2018-08-24T15:42:17.314Z,99931.91
2018-08-24T15:44:45.133Z,99937.16
2018-08-24T15:47:13.592Z,99931.91
2018-08-24T15:49:41.870Z,99933.31
2018-08-24T15:52:10.109Z,99932.85
2018-08-24T15:54:38.141Z,99930.28
2018-08-24T15:57:06.240Z,99928.62
2018-08-24T15:59:34.090Z,99934.10
2018-08-24T16:02:02.724Z,99930.25
2018-08-24T16:04:30.677Z,99935.58
2018-08-24T16:06:58.523Z,99935.69
2018-08-24T16:09:26.283Z,99933.59
2018-08-24T16:11:54.244Z,99941.14
2018-08-24T16:14:22.295Z,99932.29
2018-08-24T16:16:50.068Z,99932.61
2018-08-24T16:19:18.212Z,99933.45
2018-08-24T16:21:47.142Z,99925.28
2018-08-24T16:24:15.128Z,99929.69
2018-08-24T16:26:42.883Z,99922.51
2018-08-24T16:29:10.813Z,99929.73
2018-08-24T16:31:38.705Z,99932.17
2018-08-24T16:34:06.998Z,99933.34
2018-08-24T16:36:34.908Z,99937.50
2018-08-24T16:39:03.315Z,99928.48
2018-08-24T16:41:31.272Z,99941.41
2018-08-24T16:43:59.040Z,99946.03
2018-08-24T16:46:27.020Z,99945.95
2018-08-24T16:48:55.004Z,99937.73
2018-08-24T16:51:22.823Z,99946.73
2018-08-24T16:53:50.770Z,99947.02
2018-08-24T16:56:18.801Z,99945.42
2018-08-24T16:58:46.889Z,99948.03
2018-08-24T17:01:14.776Z,99950.35
2018-08-24T17:03:47.200Z,99942.40
2018-08-24T17:06:15.016Z,99940.27
2018-08-24T17:08:42.763Z,99945.11
2018-08-24T17:11:10.764Z,99951.94
2018-08-24T17:13:38.527Z,99949.30
2018-08-24T17:16:06.399Z,99957.92
2018-08-24T17:18:34.125Z,99952.33
2018-08-24T17:21:01.923Z,99964.34
2018-08-24T17:23:29.676Z,99962.20
2018-08-24T17:25:57.519Z,99958.83
2018-08-24T17:28:25.464Z,99961.28
2018-08-24T17:30:53.315Z,99956.73
2018-08-24T17:33:21.188Z,99961.19
2018-08-24T17:35:49.186Z,99957.29
2018-08-24T17:38:17.074Z,99957.11
2018-08-24T17:40:44.865Z,99956.00
2018-08-24T17:43:12.661Z,99963.31
2018-08-24T17:45:40.496Z,99960.01
2018-08-24T17:48:08.293Z,99958.15
2018-08-24T17:50:36.116Z,99955.87
2018-08-24T17:53:03.967Z,99967.67
2018-08-24T17:55:31.825Z,99972.13
2018-08-24T17:57:59.815Z,99975.12
2018-08-24T18:00:29.696Z,99985.14
2018-08-24T18:02:59.621Z,99988.56
2018-08-24T18:05:27.811Z,99986.86
2018-08-24T18:07:55.882Z,99986.41
2018-08-24T18:10:25.344Z,99992.50
2018-08-24T18:12:53.263Z,99991.02
2018-08-24T18:15:21.188Z,99996.27
2018-08-24T18:17:51.338Z,99997.23
2018-08-24T18:20:19.371Z,99999.19
2018-08-24T18:22:47.251Z,100000.73
2018-08-24T18:25:15.013Z,100003.31
2018-08-24T18:27:42.836Z,100009.36
2018-08-24T18:30:10.719Z,100008.62
2018-08-24T18:32:38.661Z,100010.24
2018-08-24T18:35:06.652Z,100011.39
2018-08-24T18:37:34.422Z,100013.13
2018-08-24T18:40:03.042Z,100011.82
2018-08-24T18:42:30.883Z,100007.65
2018-08-24T18:44:58.792Z,100012.69
2018-08-24T18:47:29.609Z,100005.06
2018-08-24T18:49:57.511Z,100012.26
2018-08-24T18:52:25.317Z,100018.52
2018-08-24T18:54:53.591Z,100017.86
2018-08-24T18:57:21.412Z,100023.63
2018-08-24T18:59:49.264Z,100034.75
2018-08-24T19:02:17.382Z,100036.39
2018-08-24T19:04:45.232Z,100040.75
2018-08-24T19:07:13.132Z,100037.92
2018-08-24T19:09:42.403Z,100047.43
2018-08-24T19:12:16.247Z,100050.70
2018-08-24T19:14:44.543Z,100056.52
2018-08-24T19:17:19.948Z,100062.44
2018-08-24T19:19:53.540Z,100068.78
2018-08-24T19:22:22.768Z,100075.05
2018-08-24T19:24:50.652Z,100068.40
2018-08-24T19:27:18.485Z,100074.34
2018-08-24T19:29:52.631Z,100076.73
2018-08-24T19:32:23.764Z,100076.44
2018-08-24T19:34:52.915Z,100080.50
2018-08-24T19:37:22.695Z,100082.52
2018-08-24T19:39:56.378Z,100082.77
2018-08-24T19:42:26.160Z,100094.55
2018-08-24T19:44:58.110Z,100101.87
2018-08-24T19:47:32.374Z,100096.43
2018-08-24T19:50:00.245Z,100098.71
2018-08-24T19:52:28.280Z,100094.17
2018-08-24T19:54:56.056Z,100097.11
2018-08-24T19:57:29.499Z,100095.16
2018-08-24T19:59:57.320Z,100097.17
2018-08-24T20:02:26.939Z,100101.02
2018-08-24T20:04:54.702Z,100099.13
2018-08-24T20:07:28.292Z,100098.69
2018-08-24T20:10:04.084Z,100098.30
2018-08-24T20:12:31.879Z,100106.44
2018-08-24T20:15:05.414Z,100110.38
2018-08-24T20:17:33.191Z,100110.31
2018-08-24T20:20:01.062Z,100111.67
2018-08-24T20:22:28.928Z,100116.56
2018-08-24T20:24:59.582Z,100114.44
2018-08-24T20:27:27.480Z,100117.47
2018-08-24T20:30:00.612Z,100116.17
2018-08-24T20:32:35.266Z,100119.26
2018-08-24T20:35:05.231Z,100123.57
2018-08-24T20:37:35.802Z,100125.10
2018-08-24T20:40:04.530Z,100120.38
2018-08-24T20:42:32.264Z,100119.64
2018-08-24T20:45:00.107Z,100125.70
2018-08-24T20:47:28.006Z,100125.24
2018-08-24T20:49:55.711Z,100116.13
2018-08-24T20:52:23.707Z,100125.97
2018-08-24T20:54:52.448Z,100124.67
2018-08-24T20:57:20.215Z,100123.69
2018-08-24T20:59:48.278Z,100126.91
2018-08-24T21:02:27.323Z,100126.14
2018-08-24T21:04:55.333Z,100127.87
2018-08-24T21:07:23.149Z,100135.11
2018-08-24T21:09:51.734Z,100132.08
2018-08-24T21:12:20.006Z,100123.84
2018-08-24T21:14:47.887Z,100128.88
2018-08-24T21:17:17.995Z,100129.64
2018-08-24T21:19:45.896Z,100124.78
2018-08-24T21:22:13.618Z,100125.03
2018-08-24T21:24:44.456Z,100117.44
2018-08-24T21:27:19.526Z,100118.83
2018-08-24T21:29:54.856Z,100121.29
2018-08-24T21:32:24.361Z,100116.67
2018-08-24T21:34:59.137Z,100113.77
2018-08-24T21:37:26.931Z,100119.65
2018-08-24T21:39:54.747Z,100112.28
2018-08-24T21:42:22.513Z,100116.95
2018-08-24T21:44:50.291Z,100116.11
2018-08-24T21:47:18.152Z,100114.75
2018-08-24T21:49:46.008Z,100121.96
2018-08-24T21:52:13.913Z,100116.05
2018-08-24T21:54:41.686Z,100115.44
2018-08-24T21:57:09.512Z,100110.41
2018-08-24T21:59:37.328Z,100108.53
2018-08-24T22:02:05.225Z,100112.71
2018-08-24T22:04:33.097Z,100107.53
2018-08-24T22:07:00.888Z,100113.84
2018-08-24T22:09:28.632Z,100114.66
2018-08-24T22:11:56.433Z,100111.20
2018-08-24T22:14:24.256Z,100118.64
2018-08-24T22:16:52.080Z,100119.95
2018-08-24T22:19:19.808Z,100114.09
2018-08-24T22:21:47.567Z,100109.49
2018-08-24T22:24:15.376Z,100111.20
2018-08-24T22:26:43.286Z,100105.52
2018-08-24T22:29:11.096Z,100109.68
2018-08-24T22:31:39.280Z,100103.25
2018-08-24T22:34:07.032Z,100106.47
2018-08-24T22:36:34.943Z,100102.42
2018-08-24T22:39:04.239Z,100103.86
2018-08-24T22:41:32.107Z,100108.48
2018-08-24T22:43:59.945Z,100104.94
2018-08-24T22:46:27.714Z,100111.03
2018-08-24T22:48:55.500Z,100103.36
2018-08-24T22:51:23.339Z,100102.55
2018-08-24T22:53:51.199Z,100106.13
2018-08-24T22:56:18.983Z,100103.72
2018-08-24T22:58:46.707Z,100102.08
2018-08-24T23:01:14.528Z,100097.02
2018-08-24T23:03:42.351Z,100094.91
2018-08-24T23:06:10.159Z,100099.80
2018-08-24T23:08:37.967Z,100095.34
2018-08-24T23:11:05.920Z,100089.27
2018-08-24T23:13:33.655Z,100084.36
2018-08-24T23:16:01.500Z,100085.50
2018-08-24T23:18:29.292Z,100088.57
2018-08-24T23:20:57.063Z,100088.59
2018-08-24T23:25:57.011Z,100087.77
2018-08-24T23:28:24.871Z,100088.13
2018-08-24T23:30:52.671Z,100089.77
2018-08-24T23:33:20.475Z,100089.20
2018-08-24T23:35:48.272Z,100087.56
2018-08-24T23:38:16.263Z,100091.16
2018-08-24T23:40:44.095Z,100091.81
2018-08-24T23:43:11.857Z,100089.31
2018-08-24T23:45:39.609Z,100090.53
2018-08-24T23:48:07.395Z,100099.72
2018-08-24T23:50:35.292Z,100097.91
2018-08-24T23:53:03.179Z,100099.05
2018-08-24T23:55:31.013Z,100094.16
2018-08-24T23:57:58.839Z,100093.55
